createdAt,value
2023-02-12T00:02:20.346Z,101226.72
2023-02-12T00:08:22.295Z,101230.50
2023-02-12T00:14:24.194Z,101229.06
2023-02-12T00:20:26.073Z,101235.75
2023-02-12T00:26:28.603Z,101239.09
2023-02-12T00:32:30.504Z,101239.28
2023-02-12T00:38:32.508Z,101245.72
2023-02-12T00:44:34.965Z,101253.72
2023-02-12T00:50:37.013Z,101253.63
2023-02-12T00:56:38.899Z,101248.63
2023-02-12T01:02:40.822Z,101255.31
2023-02-12T01:08:42.712Z,101251.06
2023-02-12T01:14:44.638Z,101251.41
2023-02-12T01:20:46.506Z,101255.94
2023-02-12T01:26:48.412Z,101253.81
2023-02-12T01:32:50.503Z,101247.31
2023-02-12T01:38:52.437Z,101250.44
2023-02-12T01:45:12.819Z,101245.63
2023-02-12T01:51:20.145Z,101255.00
2023-02-12T01:57:22.770Z,101251.00
2023-02-12T02:03:24.737Z,101252.13
2023-02-12T02:09:28.505Z,101252.38
2023-02-12T02:15:31.904Z,101253.56
2023-02-12T02:22:08.147Z,101260.53
2023-02-12T02:28:21.810Z,101259.94
2023-02-12T02:34:40.484Z,101246.81
2023-02-12T02:41:11.923Z,101250.97
2023-02-12T02:47:17.158Z,101257.84
2023-02-12T02:53:29.942Z,101247.78
2023-02-12T02:59:40.546Z,101245.81
2023-02-12T03:05:50.792Z,101247.31
2023-02-12T03:12:00.222Z,101253.28
2023-02-12T03:18:08.326Z,101250.50
2023-02-12T03:24:36.727Z,101246.47
2023-02-12T03:31:08.677Z,101242.69
2023-02-12T03:37:19.350Z,101252.97
2023-02-12T03:43:51.014Z,101252.59
2023-02-12T03:50:27.243Z,101247.00
2023-02-12T03:57:04.304Z,101253.22
2023-02-12T04:03:07.112Z,101249.47
2023-02-12T04:09:12.133Z,101267.28
2023-02-12T04:15:16.710Z,101275.09
2023-02-12T04:21:43.356Z,101282.00
2023-02-12T04:28:08.355Z,101286.50
2023-02-12T04:34:20.402Z,101295.94
2023-02-12T04:40:23.078Z,101298.66
2023-02-12T04:46:25.019Z,101305.19
2023-02-12T04:52:26.934Z,101302.47
2023-02-12T04:58:28.822Z,101302.19
2023-02-12T05:04:30.705Z,101306.56
2023-02-12T05:10:32.636Z,101302.19
2023-02-12T05:16:34.563Z,101301.09
2023-02-12T05:22:36.446Z,101315.22
2023-02-12T05:28:38.743Z,101311.91
2023-02-12T05:34:40.697Z,101325.28
2023-02-12T05:40:43.161Z,101320.94
2023-02-12T05:46:45.146Z,101318.88
2023-02-12T05:52:47.586Z,101322.22
2023-02-12T05:59:20.521Z,101326.13
2023-02-12T06:05:22.405Z,101321.16
2023-02-12T06:11:24.961Z,101327.19
2023-02-12T06:17:26.947Z,101322.44
2023-02-12T06:23:28.845Z,101322.69
2023-02-12T06:29:30.788Z,101332.81
2023-02-12T06:35:35.994Z,101340.00
2023-02-12T06:41:38.033Z,101346.53
2023-02-12T06:47:39.918Z,101362.16
2023-02-12T06:53:42.877Z,101365.41
2023-02-12T06:59:44.826Z,101366.38
2023-02-12T07:05:48.206Z,101372.06
2023-02-12T07:11:50.352Z,101380.09
2023-02-12T07:17:52.232Z,101387.69
2023-02-12T07:23:54.471Z,101385.41
2023-02-12T07:29:56.412Z,101382.22
2023-02-12T07:36:01.348Z,101384.97
2023-02-12T07:42:03.299Z,101396.25
2023-02-12T07:48:05.259Z,101401.34
2023-02-12T07:54:07.621Z,101402.50
2023-02-12T08:00:10.954Z,101401.41
2023-02-12T08:06:17.016Z,101406.34
2023-02-12T08:12:19.863Z,101402.88
2023-02-12T08:18:21.746Z,101397.81
2023-02-12T08:24:24.793Z,101412.41
2023-02-12T08:30:26.685Z,101405.56
2023-02-12T08:36:40.172Z,101420.63
2023-02-12T08:42:42.047Z,101429.72
2023-02-12T08:48:44.835Z,101432.25
2023-02-12T08:54:46.725Z,101434.28
2023-02-12T09:00:48.625Z,101436.56
2023-02-12T09:06:50.995Z,101451.88
2023-02-12T09:12:52.922Z,101449.41
2023-02-12T09:18:55.086Z,101457.00
2023-02-12T09:24:56.986Z,101459.59
2023-02-12T09:30:59.000Z,101461.88
2023-02-12T09:37:00.969Z,101471.19
2023-02-12T09:43:39.944Z,101467.75
2023-02-12T09:50:29.873Z,101471.81
2023-02-12T09:56:35.439Z,101480.13
2023-02-12T10:02:40.130Z,101484.38
2023-02-12T10:08:57.506Z,101478.44
2023-02-12T10:15:26.721Z,101478.16
2023-02-12T10:21:34.333Z,101479.72
2023-02-12T10:28:11.155Z,101482.25
2023-02-12T10:34:23.821Z,101469.84
2023-02-12T10:40:32.833Z,101477.31
2023-02-12T10:46:34.805Z,101479.59
2023-02-12T10:52:56.293Z,101494.66
2023-02-12T10:59:00.446Z,101478.28
2023-02-12T11:05:24.818Z,101475.75
2023-02-12T11:11:37.004Z,101477.03
2023-02-12T11:17:42.821Z,101473.06
2023-02-12T11:23:46.099Z,101469.97
2023-02-12T11:30:04.025Z,101466.75
2023-02-12T11:36:25.044Z,101464.19
2023-02-12T11:42:29.574Z,101449.78
2023-02-12T11:48:40.138Z,101449.50
2023-02-12T11:54:46.257Z,101453.03
2023-02-12T12:01:00.683Z,101448.34
2023-02-12T12:07:23.959Z,101450.53
2023-02-12T12:13:35.228Z,101448.97
2023-02-12T12:20:06.776Z,101442.47
2023-02-12T12:26:29.356Z,101446.84
2023-02-12T12:32:34.522Z,101456.47
2023-02-12T12:39:10.136Z,101446.13
2023-02-12T12:45:34.087Z,101450.53
2023-02-12T12:52:03.453Z,101441.50
2023-02-12T12:58:25.548Z,101447.13
2023-02-12T13:04:52.030Z,101434.69
2023-02-12T13:11:00.693Z,101435.56
2023-02-12T13:17:23.636Z,101423.84
2023-02-12T13:24:04.728Z,101431.88
2023-02-12T13:30:20.490Z,101420.88
2023-02-12T13:36:23.223Z,101414.56
2023-02-12T13:43:01.510Z,101421.16
2023-02-12T13:49:15.450Z,101417.91
2023-02-12T13:56:04.763Z,101410.16
2023-02-12T14:02:12.688Z,101406.63
2023-02-12T14:08:38.621Z,101406.50
2023-02-12T14:14:46.350Z,101407.47
2023-02-12T14:20:48.626Z,101412.56
2023-02-12T14:26:51.058Z,101420.16
2023-02-12T14:32:53.752Z,101413.53
2023-02-12T14:39:00.764Z,101412.66
2023-02-12T14:45:02.704Z,101409.88
2023-02-12T14:51:05.826Z,101407.78
2023-02-12T14:57:19.195Z,101415.81
2023-02-12T15:03:55.143Z,101416.50
2023-02-12T15:10:25.489Z,101413.25
2023-02-12T15:17:03.940Z,101420.19
2023-02-12T15:23:43.264Z,101416.75
2023-02-12T15:29:52.774Z,101419.44
2023-02-12T15:35:56.200Z,101423.66
2023-02-12T15:41:58.324Z,101417.97
2023-02-12T15:48:21.703Z,101418.25
2023-02-12T15:54:24.260Z,101409.38
2023-02-12T16:00:49.454Z,101410.78
2023-02-12T16:06:52.573Z,101411.44
2023-02-12T16:12:54.957Z,101413.25
2023-02-12T16:19:19.906Z,101409.44
2023-02-12T16:25:33.678Z,101418.16
2023-02-12T16:31:35.703Z,101417.59
2023-02-12T16:37:37.539Z,101433.31
2023-02-12T16:43:39.469Z,101427.56
2023-02-12T16:49:59.276Z,101430.97
2023-02-12T16:56:04.732Z,101428.63
2023-02-12T17:02:16.323Z,101438.13
2023-02-12T17:08:22.803Z,101444.00
2023-02-12T17:14:24.753Z,101433.34
2023-02-12T17:20:26.637Z,101449.22
2023-02-12T17:26:28.558Z,101450.38
2023-02-12T17:32:30.466Z,101454.38
2023-02-12T17:38:32.625Z,101456.41
2023-02-12T17:44:34.570Z,101456.50
2023-02-12T17:50:36.480Z,101462.97
2023-02-12T17:56:38.368Z,101460.34
2023-02-12T18:02:40.291Z,101463.50
2023-02-12T18:08:43.304Z,101460.09
2023-02-12T18:14:45.285Z,101465.31
2023-02-12T18:20:47.227Z,101464.72
2023-02-12T18:26:49.945Z,101464.75
2023-02-12T18:32:51.898Z,101457.28
2023-02-12T18:38:53.851Z,101450.78
2023-02-12T18:44:55.743Z,101450.63
2023-02-12T18:51:01.844Z,101458.72
2023-02-12T18:57:03.826Z,101454.13
2023-02-12T19:03:05.760Z,101451.31
2023-02-12T19:09:07.839Z,101455.38
2023-02-12T19:15:10.125Z,101454.44
2023-02-12T19:21:14.374Z,101453.00
2023-02-12T19:27:16.269Z,101453.59
2023-02-12T19:33:18.167Z,101464.06
2023-02-12T19:39:23.846Z,101468.41
2023-02-12T19:45:25.722Z,101469.09
2023-02-12T19:51:29.886Z,101472.19
2023-02-12T19:57:31.871Z,101473.25
2023-02-12T20:03:34.977Z,101479.91
2023-02-12T20:09:37.000Z,101473.31
2023-02-12T20:15:39.832Z,101468.72
2023-02-12T20:21:42.887Z,101471.84
2023-02-12T20:27:44.794Z,101477.03
2023-02-12T20:33:47.671Z,101479.00
2023-02-12T20:39:49.558Z,101480.00
2023-02-12T20:45:51.437Z,101475.75
2023-02-12T20:51:53.616Z,101491.00
2023-02-12T20:57:55.535Z,101484.97
2023-02-12T21:03:57.746Z,101492.59
2023-02-12T21:09:59.647Z,101496.22
2023-02-12T21:16:12.758Z,101482.63
2023-02-12T21:22:14.686Z,101493.94
2023-02-12T21:28:16.597Z,101489.19
2023-02-12T21:34:22.245Z,101488.47
2023-02-12T21:40:24.268Z,101489.56
2023-02-12T21:46:27.916Z,101482.78
2023-02-12T21:52:29.827Z,101485.59
2023-02-12T21:58:33.039Z,101469.56
2023-02-12T22:04:34.967Z,101474.47
2023-02-12T22:10:37.730Z,101470.56
2023-02-12T22:16:40.233Z,101468.88
2023-02-12T22:22:42.360Z,101456.66
2023-02-12T22:28:47.530Z,101452.47
2023-02-12T22:34:49.438Z,101456.66
2023-02-12T22:40:53.247Z,101453.44
2023-02-12T22:46:55.172Z,101449.28
2023-02-12T22:52:57.059Z,101455.47
2023-02-12T22:59:01.634Z,101458.50
2023-02-12T23:05:03.565Z,101465.88
2023-02-12T23:11:07.110Z,101460.84
2023-02-12T23:17:10.171Z,101459.97
2023-02-12T23:23:12.055Z,101458.03
2023-02-12T23:29:14.092Z,101452.22
2023-02-12T23:35:16.158Z,101442.78
2023-02-12T23:41:18.044Z,101435.22
2023-02-12T23:47:19.957Z,101431.59
2023-02-12T23:53:22.418Z,101433.88
2023-02-12T23:59:27.483Z,101430.69
